createdAt,value
2019-05-26T00:01:03.664Z,84.70
2019-05-26T00:03:33.199Z,85.10
2019-05-26T00:06:02.665Z,86.00
2019-05-26T00:08:32.111Z,85.40
2019-05-26T00:11:01.664Z,85.90
2019-05-26T00:13:31.176Z,85.60
2019-05-26T00:16:00.668Z,85.10
2019-05-26T00:18:33.282Z,84.80
2019-05-26T00:21:01.292Z,84.90
2019-05-26T00:23:30.850Z,85.00
2019-05-26T00:26:00.363Z,85.60
2019-05-26T00:28:29.902Z,85.10
2019-05-26T00:30:59.420Z,85.70
2019-05-26T00:33:28.946Z,85.80
2019-05-26T00:35:58.580Z,86.50
2019-05-26T00:38:28.095Z,86.40
2019-05-26T00:40:57.582Z,86.00
2019-05-26T00:43:27.096Z,86.20
2019-05-26T00:45:56.586Z,86.30
2019-05-26T00:48:26.152Z,85.80
2019-05-26T00:50:58.273Z,86.30
2019-05-26T00:53:27.882Z,86.50
2019-05-26T00:55:57.469Z,86.10
2019-05-26T00:58:26.941Z,86.70
2019-05-26T01:00:57.781Z,86.50
2019-05-26T01:03:26.459Z,86.70
2019-05-26T01:05:58.833Z,87.00
2019-05-26T01:08:28.379Z,86.80
2019-05-26T01:11:01.103Z,87.10
2019-05-26T01:13:29.015Z,86.20
2019-05-26T01:15:58.521Z,86.40
2019-05-26T01:18:28.173Z,87.70
2019-05-26T01:20:57.650Z,88.10
2019-05-26T01:23:28.169Z,87.90
2019-05-26T01:25:57.680Z,87.70
2019-05-26T01:28:28.966Z,87.90
2019-05-26T01:30:58.462Z,87.80
2019-05-26T01:33:28.054Z,88.50
2019-05-26T01:35:57.689Z,87.30
2019-05-26T01:38:28.131Z,87.00
2019-05-26T01:40:57.709Z,87.90
2019-05-26T01:43:27.305Z,88.10
2019-05-26T01:45:56.929Z,87.80
2019-05-26T01:48:26.460Z,86.80
2019-05-26T01:50:55.965Z,86.40
2019-05-26T01:53:25.473Z,86.10
2019-05-26T01:55:55.003Z,86.00
2019-05-26T01:58:24.533Z,85.80
2019-05-26T02:00:54.055Z,86.20
2019-05-26T02:03:23.517Z,87.30
2019-05-26T02:05:53.136Z,88.20
2019-05-26T02:08:37.998Z,87.70
2019-05-26T02:10:53.751Z,86.90
2019-05-26T02:13:23.360Z,86.50
2019-05-26T02:15:52.889Z,86.50
2019-05-26T02:18:22.390Z,86.30
2019-05-26T02:20:53.414Z,86.10
2019-05-26T02:23:22.943Z,86.90
2019-05-26T02:25:52.543Z,86.90
2019-05-26T02:28:22.062Z,85.70
2019-05-26T02:30:51.518Z,85.20
2019-05-26T02:33:20.954Z,85.60
2019-05-26T02:35:50.404Z,85.80
2019-05-26T02:38:19.995Z,86.00
2019-05-26T02:40:49.442Z,86.10
2019-05-26T02:43:19.178Z,86.30
2019-05-26T02:45:48.625Z,87.20
2019-05-26T02:48:18.315Z,87.80
2019-05-26T02:50:47.778Z,87.90
2019-05-26T02:53:17.277Z,87.80
2019-05-26T02:55:46.889Z,87.80
2019-05-26T02:58:16.434Z,87.30
2019-05-26T03:00:46.584Z,87.00
2019-05-26T03:03:16.880Z,86.60
2019-05-26T03:05:46.833Z,87.20
2019-05-26T03:08:17.453Z,87.70
2019-05-26T03:10:49.724Z,87.60
2019-05-26T03:13:19.260Z,87.50
2019-05-26T03:15:48.815Z,87.30
2019-05-26T03:18:18.677Z,87.20
2019-05-26T03:20:48.168Z,88.60
2019-05-26T03:23:17.848Z,88.90
2019-05-26T03:25:47.638Z,88.60
2019-05-26T03:28:17.020Z,90.90
2019-05-26T03:30:46.539Z,90.90
2019-05-26T03:33:16.068Z,90.90
2019-05-26T03:35:45.603Z,90.80
2019-05-26T03:38:15.091Z,91.50
2019-05-26T03:40:45.106Z,91.60
2019-05-26T03:43:14.841Z,91.40
2019-05-26T03:45:50.166Z,91.30
2019-05-26T03:48:19.716Z,91.20
2019-05-26T03:50:49.222Z,91.10
2019-05-26T03:53:18.728Z,91.60
2019-05-26T03:55:48.248Z,91.50
2019-05-26T03:58:17.890Z,91.80
2019-05-26T04:00:47.416Z,91.20
2019-05-26T04:03:16.937Z,91.80
2019-05-26T04:05:48.028Z,91.80
2019-05-26T04:08:17.832Z,91.80
2019-05-26T04:10:47.589Z,91.70
2019-05-26T04:13:17.086Z,92.00
2019-05-26T04:15:46.553Z,92.00
2019-05-26T04:18:16.049Z,91.90
2019-05-26T04:20:46.052Z,91.90
2019-05-26T04:23:17.243Z,92.00
2019-05-26T04:25:46.753Z,91.90
2019-05-26T04:28:16.302Z,92.10
2019-05-26T04:30:46.137Z,91.80
2019-05-26T04:33:15.596Z,91.90
2019-05-26T04:35:45.179Z,91.70
2019-05-26T04:38:14.649Z,91.90
2019-05-26T04:40:44.215Z,92.00
2019-05-26T04:43:15.059Z,91.70
2019-05-26T04:45:44.662Z,91.80
2019-05-26T04:48:14.262Z,92.10
2019-05-26T04:50:43.764Z,92.30
2019-05-26T04:53:13.254Z,92.00
2019-05-26T04:55:42.713Z,92.00
2019-05-26T04:58:12.227Z,92.00
2019-05-26T05:00:41.714Z,92.10
2019-05-26T05:03:11.168Z,91.60
2019-05-26T05:05:40.810Z,91.50
2019-05-26T05:08:10.327Z,91.50
2019-05-26T05:10:42.622Z,91.60
2019-05-26T05:13:11.918Z,91.40
2019-05-26T05:15:41.376Z,91.60
2019-05-26T05:18:10.875Z,91.30
2019-05-26T05:20:41.099Z,91.10
2019-05-26T05:23:10.579Z,91.50
2019-05-26T05:25:40.024Z,90.90
2019-05-26T05:28:09.480Z,90.80
2019-05-26T05:30:38.941Z,91.00
2019-05-26T05:33:08.516Z,90.60
2019-05-26T05:35:37.994Z,90.10
2019-05-26T05:38:08.901Z,89.70
2019-05-26T05:40:38.367Z,90.00
2019-05-26T05:43:08.243Z,90.30
2019-05-26T05:45:39.997Z,90.20
2019-05-26T05:48:09.620Z,89.70
2019-05-26T05:50:40.242Z,90.00
2019-05-26T05:53:09.863Z,89.70
2019-05-26T05:55:39.369Z,89.50
2019-05-26T05:58:08.878Z,88.60
2019-05-26T06:00:38.332Z,89.10
2019-05-26T06:03:07.836Z,88.80
2019-05-26T06:05:37.380Z,88.70
2019-05-26T06:08:06.888Z,88.40
2019-05-26T06:10:36.394Z,87.90
2019-05-26T06:13:06.149Z,87.30
2019-05-26T06:15:36.619Z,87.70
2019-05-26T06:18:06.288Z,87.70
2019-05-26T06:20:35.844Z,86.70
2019-05-26T06:23:07.337Z,87.10
2019-05-26T06:25:37.107Z,87.30
2019-05-26T06:28:16.529Z,86.20
2019-05-26T06:30:45.917Z,86.30
2019-05-26T06:33:16.976Z,85.60
2019-05-26T06:35:46.432Z,85.80
2019-05-26T06:38:15.889Z,84.90
2019-05-26T06:40:45.427Z,86.00
2019-05-26T06:43:14.928Z,84.50
2019-05-26T06:45:47.482Z,84.80
2019-05-26T06:48:16.954Z,84.80
2019-05-26T06:50:46.716Z,83.60
2019-05-26T06:53:16.162Z,84.50
2019-05-26T06:55:45.654Z,83.40
2019-05-26T06:58:15.181Z,83.80
2019-05-26T07:00:46.040Z,83.20
2019-05-26T07:03:14.735Z,82.40
2019-05-26T07:05:44.136Z,82.90
2019-05-26T07:08:13.778Z,82.90
2019-05-26T07:10:43.247Z,82.00
2019-05-26T07:13:12.726Z,82.00
2019-05-26T07:15:42.210Z,80.60
2019-05-26T07:18:11.721Z,81.80
2019-05-26T07:20:41.593Z,82.60
2019-05-26T07:23:11.499Z,82.00
2019-05-26T07:25:41.147Z,80.90
2019-05-26T07:28:10.650Z,79.10
2019-05-26T07:30:43.097Z,79.80
2019-05-26T07:33:12.673Z,80.40
2019-05-26T07:35:44.429Z,79.30
2019-05-26T07:38:14.229Z,79.30
2019-05-26T07:40:44.891Z,79.20
2019-05-26T07:43:16.049Z,80.10
2019-05-26T07:45:45.558Z,78.90
2019-05-26T07:48:15.281Z,78.50
2019-05-26T07:50:44.778Z,77.80
2019-05-26T07:53:14.309Z,77.90
2019-05-26T07:55:43.828Z,78.50
2019-05-26T07:58:13.396Z,76.90
2019-05-26T08:00:42.893Z,76.80
2019-05-26T08:03:12.431Z,76.10
2019-05-26T08:05:41.936Z,78.00
2019-05-26T08:08:13.101Z,77.30
2019-05-26T08:10:44.297Z,76.00
2019-05-26T08:13:13.803Z,75.50
2019-05-26T08:15:43.790Z,76.10
2019-05-26T08:18:13.433Z,74.70
2019-05-26T08:20:43.502Z,75.40
2019-05-26T08:23:13.113Z,74.30
2019-05-26T08:25:42.732Z,76.40
2019-05-26T08:28:13.102Z,75.60
2019-05-26T08:30:43.766Z,75.00
2019-05-26T08:33:12.649Z,75.10
2019-05-26T08:35:42.058Z,72.00
2019-05-26T08:38:11.529Z,72.40
2019-05-26T08:40:42.595Z,70.50
2019-05-26T08:43:12.173Z,71.40
2019-05-26T08:45:41.822Z,71.40
2019-05-26T08:48:11.245Z,70.30
2019-05-26T08:50:40.766Z,69.90
2019-05-26T08:53:10.400Z,71.00
2019-05-26T08:55:39.912Z,71.10
2019-05-26T08:58:09.376Z,70.70
2019-05-26T09:00:38.872Z,69.00
2019-05-26T09:03:08.358Z,69.60
2019-05-26T09:05:37.822Z,68.40
2019-05-26T09:08:09.000Z,68.90
2019-05-26T09:10:38.458Z,68.20
2019-05-26T09:13:08.002Z,68.60
2019-05-26T09:15:37.476Z,68.50
2019-05-26T09:18:07.019Z,68.60
2019-05-26T09:20:36.527Z,68.90
2019-05-26T09:23:06.055Z,69.10
2019-05-26T09:25:35.614Z,70.20
2019-05-26T09:28:05.220Z,69.00
2019-05-26T09:30:34.730Z,67.90
2019-05-26T09:33:05.731Z,67.80
2019-05-26T09:35:35.380Z,68.00
2019-05-26T09:38:06.504Z,67.90
2019-05-26T09:40:36.112Z,67.30
2019-05-26T09:43:15.594Z,68.80
2019-05-26T09:45:36.712Z,67.40
2019-05-26T09:48:07.388Z,66.40
2019-05-26T09:50:36.855Z,67.20
2019-05-26T09:53:06.361Z,67.60
2019-05-26T09:55:35.845Z,67.60
2019-05-26T09:58:05.411Z,68.80
2019-05-26T10:00:40.871Z,66.20
2019-05-26T10:03:10.431Z,66.40
2019-05-26T10:05:59.745Z,67.50
2019-05-26T10:08:29.226Z,66.70
2019-05-26T10:10:58.678Z,66.70
2019-05-26T10:13:31.739Z,66.80
2019-05-26T10:15:59.366Z,66.70
2019-05-26T10:18:28.881Z,65.90
2019-05-26T10:20:58.353Z,64.40
2019-05-26T10:23:29.866Z,64.40
2019-05-26T10:25:59.077Z,65.30
2019-05-26T10:28:29.638Z,62.90
2019-05-26T10:30:59.141Z,64.70
2019-05-26T10:33:28.619Z,65.90
2019-05-26T10:35:58.204Z,65.20
2019-05-26T10:38:30.389Z,63.40
2019-05-26T10:40:59.990Z,64.10
2019-05-26T10:43:29.460Z,63.80
2019-05-26T10:45:58.963Z,64.10
2019-05-26T10:48:28.710Z,61.30
2019-05-26T10:50:58.207Z,63.10
2019-05-26T10:53:27.755Z,61.80
2019-05-26T10:55:57.373Z,63.70
2019-05-26T10:58:27.763Z,62.00
2019-05-26T11:00:57.206Z,60.80
2019-05-26T11:03:26.803Z,59.70
2019-05-26T11:05:56.391Z,60.00
2019-05-26T11:08:26.053Z,60.60
2019-05-26T11:10:55.543Z,59.30
2019-05-26T11:13:25.024Z,60.00
2019-05-26T11:15:54.531Z,60.00
2019-05-26T11:18:24.184Z,59.30
2019-05-26T11:20:53.695Z,59.00
2019-05-26T11:23:23.251Z,58.90
2019-05-26T11:25:53.177Z,60.00
2019-05-26T11:28:24.312Z,59.30
2019-05-26T11:30:53.766Z,59.50
2019-05-26T11:33:23.257Z,60.40
2019-05-26T11:35:52.791Z,61.80
2019-05-26T11:38:22.288Z,61.30
2019-05-26T11:40:51.837Z,61.10
2019-05-26T11:43:21.589Z,61.30
2019-05-26T11:45:51.059Z,60.50
2019-05-26T11:48:20.526Z,61.00
2019-05-26T11:50:50.030Z,61.70
2019-05-26T11:53:19.519Z,61.90
2019-05-26T11:55:49.000Z,61.30
2019-05-26T11:58:19.975Z,61.40
2019-05-26T12:00:50.678Z,61.70
2019-05-26T12:03:20.176Z,60.90
2019-05-26T12:05:49.651Z,61.20
2019-05-26T12:08:19.125Z,62.80
2019-05-26T12:10:49.686Z,62.90
2019-05-26T12:13:19.244Z,63.20
2019-05-26T12:15:48.682Z,64.30
2019-05-26T12:18:18.266Z,63.40
2019-05-26T12:20:48.189Z,63.90
2019-05-26T12:23:18.246Z,64.60
2019-05-26T12:25:48.638Z,63.20
2019-05-26T12:28:18.132Z,63.70
2019-05-26T12:30:48.015Z,62.50
2019-05-26T12:33:17.567Z,62.00
2019-05-26T12:35:47.143Z,63.70
2019-05-26T12:38:16.942Z,63.00
2019-05-26T12:40:46.512Z,63.80
2019-05-26T12:43:16.094Z,64.50
2019-05-26T12:45:45.739Z,64.90
2019-05-26T12:48:18.378Z,64.80
2019-05-26T12:50:47.977Z,63.60
2019-05-26T12:53:17.446Z,63.40
2019-05-26T12:55:47.018Z,63.40
2019-05-26T12:58:16.569Z,63.40
2019-05-26T13:00:49.775Z,62.20
2019-05-26T13:03:17.162Z,61.60
2019-05-26T13:05:46.638Z,62.80
2019-05-26T13:08:16.063Z,62.10
2019-05-26T13:10:45.611Z,63.00
2019-05-26T13:13:15.145Z,62.40
2019-05-26T13:15:44.643Z,61.20
2019-05-26T13:18:14.188Z,62.10
2019-05-26T13:20:43.691Z,62.40
2019-05-26T13:23:13.185Z,61.40
2019-05-26T13:25:42.744Z,62.30
2019-05-26T13:28:12.311Z,61.10
2019-05-26T13:30:41.930Z,61.00
2019-05-26T13:33:11.439Z,61.00
2019-05-26T13:35:40.995Z,60.50
2019-05-26T13:38:10.458Z,60.70
2019-05-26T13:40:39.954Z,61.00
2019-05-26T13:43:09.469Z,60.90
2019-05-26T13:45:38.923Z,61.50
2019-05-26T13:48:08.534Z,61.20
2019-05-26T13:50:38.061Z,60.90
2019-05-26T13:53:07.647Z,60.80
2019-05-26T13:55:37.111Z,60.80
2019-05-26T13:58:06.691Z,59.80
2019-05-26T14:00:36.216Z,61.00
2019-05-26T14:03:06.081Z,60.70
2019-05-26T14:05:35.617Z,60.60
2019-05-26T14:08:05.192Z,60.60
2019-05-26T14:10:36.600Z,60.00
2019-05-26T14:13:07.138Z,59.70
2019-05-26T14:15:38.940Z,59.50
2019-05-26T14:18:08.531Z,59.80
2019-05-26T14:20:41.640Z,59.90
2019-05-26T14:23:11.609Z,59.00
2019-05-26T14:25:41.177Z,59.40
2019-05-26T14:28:10.669Z,59.30
2019-05-26T14:30:40.175Z,59.20
2019-05-26T14:33:11.234Z,58.30
2019-05-26T14:35:40.986Z,57.60
2019-05-26T14:38:10.495Z,58.30
2019-05-26T14:40:39.970Z,57.90
2019-05-26T14:43:09.457Z,58.60
2019-05-26T14:45:52.334Z,58.60
2019-05-26T14:48:10.185Z,58.60
2019-05-26T14:50:40.910Z,57.30
2019-05-26T14:53:10.952Z,57.30
2019-05-26T14:55:40.407Z,57.10
2019-05-26T14:58:15.894Z,57.20
2019-05-26T15:00:41.080Z,57.30
2019-05-26T15:03:10.611Z,56.40
2019-05-26T15:05:40.221Z,56.80
2019-05-26T15:08:09.838Z,55.90
2019-05-26T15:10:39.541Z,55.40
2019-05-26T15:13:09.034Z,55.80
2019-05-26T15:15:38.527Z,56.20
2019-05-26T15:18:08.003Z,56.40
2019-05-26T15:20:37.615Z,55.00
2019-05-26T15:23:07.132Z,56.50
2019-05-26T15:25:36.612Z,56.40
2019-05-26T15:28:06.298Z,55.60
2019-05-26T15:30:35.868Z,55.10
2019-05-26T15:33:05.542Z,56.00
2019-05-26T15:35:35.024Z,55.70
2019-05-26T15:38:04.635Z,56.80
2019-05-26T15:40:34.608Z,57.10
2019-05-26T15:43:05.336Z,57.00
2019-05-26T15:45:34.872Z,57.40
2019-05-26T15:48:17.912Z,57.00
2019-05-26T15:50:48.276Z,57.00
2019-05-26T15:53:18.001Z,58.00
2019-05-26T15:55:47.663Z,57.80
2019-05-26T15:58:17.288Z,57.70
2019-05-26T16:00:46.910Z,58.00
2019-05-26T16:03:16.423Z,57.50
2019-05-26T16:05:46.039Z,57.60
2019-05-26T16:08:16.429Z,57.50
2019-05-26T16:10:45.922Z,57.60
2019-05-26T16:13:16.973Z,57.80
2019-05-26T16:15:47.993Z,58.40
2019-05-26T16:18:17.487Z,58.20
2019-05-26T16:20:46.967Z,58.20
2019-05-26T16:23:16.560Z,58.00
2019-05-26T16:25:46.246Z,58.30
2019-05-26T16:28:15.874Z,58.70
2019-05-26T16:30:46.885Z,59.00
2019-05-26T16:33:16.309Z,59.20
2019-05-26T16:35:46.124Z,59.80
2019-05-26T16:38:15.843Z,59.30
2019-05-26T16:40:45.605Z,58.40
2019-05-26T16:43:15.160Z,58.20
2019-05-26T16:45:55.606Z,58.30
2019-05-26T16:48:16.227Z,58.70
2019-05-26T16:50:45.858Z,59.00
2019-05-26T16:53:15.614Z,58.40
2019-05-26T16:55:45.367Z,58.80
2019-05-26T16:58:15.007Z,58.50
2019-05-26T17:00:44.495Z,58.70
2019-05-26T17:03:14.095Z,58.90
2019-05-26T17:05:43.627Z,59.20
2019-05-26T17:08:13.680Z,59.20
2019-05-26T17:10:43.211Z,58.80
2019-05-26T17:13:14.457Z,59.10
2019-05-26T17:15:45.551Z,58.40
2019-05-26T17:18:15.023Z,58.40
2019-05-26T17:20:44.591Z,59.00
2019-05-26T17:23:14.084Z,58.40
2019-05-26T17:25:43.689Z,58.70
2019-05-26T17:28:13.231Z,58.90
2019-05-26T17:30:42.733Z,58.90
2019-05-26T17:33:12.339Z,58.70
2019-05-26T17:35:42.109Z,58.70
2019-05-26T17:38:11.662Z,58.70
2019-05-26T17:40:41.240Z,59.20
2019-05-26T17:43:10.725Z,58.90
2019-05-26T17:45:40.223Z,59.70
2019-05-26T17:48:09.832Z,59.20
2019-05-26T17:50:39.331Z,59.40
2019-05-26T17:53:08.905Z,59.10
2019-05-26T17:55:41.351Z,59.00
2019-05-26T17:58:11.683Z,59.00
2019-05-26T18:00:41.275Z,58.70
2019-05-26T18:03:10.714Z,58.50
2019-05-26T18:05:40.270Z,58.20
2019-05-26T18:08:09.907Z,59.10
2019-05-26T18:10:39.474Z,59.50
2019-05-26T18:13:08.935Z,60.10
2019-05-26T18:15:38.372Z,60.10
2019-05-26T18:18:07.834Z,60.70
2019-05-26T18:20:37.371Z,61.20
2019-05-26T18:23:06.939Z,61.90
2019-05-26T18:25:36.448Z,62.00
2019-05-26T18:28:06.160Z,62.70
2019-05-26T18:30:38.558Z,62.70
2019-05-26T18:33:08.045Z,62.40
2019-05-26T18:35:37.605Z,63.00
2019-05-26T18:38:07.157Z,63.10
2019-05-26T18:40:36.651Z,63.20
2019-05-26T18:43:06.970Z,63.70
2019-05-26T18:45:36.412Z,64.10
2019-05-26T18:48:06.065Z,62.90
2019-05-26T18:50:35.730Z,63.30
2019-05-26T18:53:05.456Z,61.20
2019-05-26T18:55:35.026Z,60.60
2019-05-26T18:58:04.650Z,60.50
2019-05-26T19:00:34.554Z,60.90
2019-05-26T19:03:04.156Z,61.20
2019-05-26T19:05:38.204Z,61.00
2019-05-26T19:08:05.492Z,61.50
2019-05-26T19:10:36.135Z,61.30
2019-05-26T19:13:05.576Z,61.50
2019-05-26T19:15:35.306Z,62.10
2019-05-26T19:18:18.705Z,62.30
2019-05-26T19:20:36.178Z,62.60
2019-05-26T19:23:05.722Z,63.00
2019-05-26T19:25:35.857Z,63.30
2019-05-26T19:28:05.338Z,63.20
2019-05-26T19:30:37.999Z,63.70
2019-05-26T19:33:07.525Z,63.80
2019-05-26T19:35:37.938Z,64.00
2019-05-26T19:38:07.542Z,64.40
2019-05-26T19:40:36.964Z,64.50
2019-05-26T19:43:06.516Z,64.80
2019-05-26T19:45:36.026Z,65.00
2019-05-26T19:48:05.456Z,65.30
2019-05-26T19:50:35.037Z,65.90
2019-05-26T19:53:04.992Z,65.70
2019-05-26T19:55:34.672Z,67.10
2019-05-26T19:58:04.388Z,66.30
2019-05-26T20:00:35.942Z,66.70
2019-05-26T20:03:05.473Z,66.70
2019-05-26T20:05:35.045Z,67.20
2019-05-26T20:08:05.850Z,67.20
2019-05-26T20:10:35.377Z,67.40
2019-05-26T20:13:05.040Z,67.60
2019-05-26T20:15:34.796Z,67.90
2019-05-26T20:18:04.509Z,68.70
2019-05-26T20:20:34.121Z,68.10
2019-05-26T20:23:03.732Z,69.70
2019-05-26T20:25:34.426Z,69.70
2019-05-26T20:28:03.915Z,70.30
2019-05-26T20:30:33.413Z,71.10
2019-05-26T20:33:02.997Z,71.20
2019-05-26T20:35:32.439Z,71.90
2019-05-26T20:38:02.075Z,71.20
2019-05-26T20:40:31.553Z,71.90
2019-05-26T20:43:01.100Z,72.10
2019-05-26T20:45:30.709Z,72.40
2019-05-26T20:48:00.187Z,73.10
2019-05-26T20:50:30.182Z,73.10
2019-05-26T20:52:59.923Z,73.90
2019-05-26T20:55:29.395Z,72.60
2019-05-26T20:57:59.000Z,72.80
2019-05-26T21:00:29.758Z,72.90
2019-05-26T21:02:59.325Z,72.90
2019-05-26T21:05:28.846Z,72.70
2019-05-26T21:07:58.345Z,73.20
2019-05-26T21:10:27.834Z,72.90
2019-05-26T21:12:58.469Z,73.50
2019-05-26T21:15:29.466Z,72.30
2019-05-26T21:17:59.019Z,72.10
2019-05-26T21:20:28.675Z,71.80
2019-05-26T21:22:58.323Z,71.60
2019-05-26T21:25:27.883Z,71.10
2019-05-26T21:27:57.374Z,71.20
2019-05-26T21:30:26.866Z,71.50
2019-05-26T21:32:56.416Z,71.60
2019-05-26T21:35:25.990Z,72.10
2019-05-26T21:37:55.449Z,71.80
2019-05-26T21:40:24.963Z,72.20
2019-05-26T21:42:54.424Z,72.50
2019-05-26T21:45:25.616Z,72.80
2019-05-26T21:47:55.069Z,73.20
2019-05-26T21:50:24.690Z,73.70
2019-05-26T21:52:55.693Z,74.00
2019-05-26T21:55:25.194Z,73.80
2019-05-26T21:57:54.750Z,74.20
2019-05-26T22:00:27.009Z,74.40
2019-05-26T22:02:58.017Z,74.80
2019-05-26T22:05:27.502Z,75.10
2019-05-26T22:07:59.441Z,76.60
2019-05-26T22:10:28.951Z,78.70
2019-05-26T22:12:58.391Z,79.50
2019-05-26T22:15:27.879Z,81.60
2019-05-26T22:17:57.512Z,82.50
2019-05-26T22:20:27.016Z,83.40
2019-05-26T22:22:56.625Z,84.20
2019-05-26T22:25:26.201Z,85.70
2019-05-26T22:27:55.870Z,86.80
2019-05-26T22:30:25.584Z,88.30
2019-05-26T22:32:55.042Z,89.60
2019-05-26T22:35:24.634Z,90.40
2019-05-26T22:37:55.171Z,90.80
2019-05-26T22:40:24.753Z,91.30
2019-05-26T22:42:54.211Z,91.50
2019-05-26T22:45:23.823Z,91.70
2019-05-26T22:47:53.276Z,92.00
2019-05-26T22:50:22.845Z,92.30
2019-05-26T22:52:52.306Z,92.50
2019-05-26T22:55:21.744Z,92.60
2019-05-26T22:57:51.159Z,92.70
2019-05-26T23:00:21.267Z,92.90
2019-05-26T23:02:52.341Z,93.20
2019-05-26T23:05:21.956Z,93.10
2019-05-26T23:07:51.521Z,93.30
2019-05-26T23:10:21.336Z,93.60
2019-05-26T23:12:51.022Z,93.70
2019-05-26T23:15:20.912Z,94.00
2019-05-26T23:17:50.515Z,94.10
2019-05-26T23:20:20.072Z,94.20
2019-05-26T23:22:49.511Z,94.30
2019-05-26T23:25:18.967Z,94.40
2019-05-26T23:27:48.472Z,94.50
2019-05-26T23:30:17.957Z,94.60
2019-05-26T23:32:47.464Z,94.50
2019-05-26T23:35:17.071Z,94.60
2019-05-26T23:37:46.581Z,94.90
2019-05-26T23:40:16.277Z,94.60
2019-05-26T23:42:45.696Z,94.40
2019-05-26T23:45:15.323Z,94.60
2019-05-26T23:47:44.809Z,94.60
2019-05-26T23:50:14.515Z,94.50
2019-05-26T23:52:44.040Z,94.30
2019-05-26T23:55:13.767Z,94.50
2019-05-26T23:57:43.205Z,94.50
